PAL1863 RPLL-RPVM
Flight info
| Callsign | PAL1863 |
|---|---|
| Flight time | 0h 52m |
| Altitude | 37000 |
| Route | HARBO1 HARBO DCT IPATA W25 BATAY BATAY3P |
| Aircraft | A321/M-SDE3FGHIRWY/LB1 |
Departure
| Time | 2026-05-06 13:38 |
|---|---|
| Airport | Ninoy Aquino International Airport (RPLL) |
Arrival
| Time | 2026-05-06 14:30 |
|---|---|
| Airport | Mactan Cebu International Airport (RPVM) |
| Time | Latitude | Longitude | Altitude | Speed | Heading |
|---|---|---|---|---|---|
| 2026-05-06 13:16 | 14.51123 | 121.01324 | 82 ft | 0 kts | 215° |
| 2026-05-06 13:25 | 14.51176 | 121.01353 | 81 ft | 2 kts | 179° |
| 2026-05-06 13:25 | 14.51191 | 121.01350 | 82 ft | 2 kts | 160° |
| 2026-05-06 13:25 | 14.51204 | 121.01344 | 82 ft | 2 kts | 141° |
| 2026-05-06 13:25 | 14.51209 | 121.01338 | 82 ft | 1 kts | 131° |
| 2026-05-06 13:26 | 14.51211 | 121.01336 | 82 ft | 0 kts | 134° |
| 2026-05-06 13:29 | 14.51192 | 121.01355 | 82 ft | 2 kts | 135° |
| 2026-05-06 13:29 | 14.51176 | 121.01372 | 82 ft | 3 kts | 135° |
| 2026-05-06 13:29 | 14.51156 | 121.01393 | 82 ft | 4 kts | 134° |
| 2026-05-06 13:30 | 14.51131 | 121.01419 | 82 ft | 5 kts | 134° |
| 2026-05-06 13:30 | 14.51101 | 121.01450 | 82 ft | 6 kts | 134° |
| 2026-05-06 13:30 | 14.51091 | 121.01460 | 82 ft | 6 kts | 134° |
| 2026-05-06 13:31 | 14.50868 | 121.01662 | 82 ft | 4 kts | 207° |
| 2026-05-06 13:32 | 14.50844 | 121.01632 | 82 ft | 6 kts | 239° |
| 2026-05-06 13:32 | 14.50820 | 121.01592 | 82 ft | 7 kts | 239° |
| 2026-05-06 13:32 | 14.50794 | 121.01543 | 82 ft | 8 kts | 240° |
| 2026-05-06 13:32 | 14.50764 | 121.01490 | 82 ft | 9 kts | 240° |
| 2026-05-06 13:33 | 14.50731 | 121.01430 | 82 ft | 10 kts | 240° |
| 2026-05-06 13:33 | 14.50695 | 121.01365 | 82 ft | 11 kts | 240° |
| 2026-05-06 13:33 | 14.50669 | 121.01318 | 82 ft | 11 kts | 240° |
| 2026-05-06 13:33 | 14.50608 | 121.01209 | 82 ft | 19 kts | 240° |
| 2026-05-06 13:34 | 14.50582 | 121.01162 | 82 ft | 25 kts | 240° |
| 2026-05-06 13:34 | 14.50434 | 121.00897 | 82 ft | 24 kts | 240° |
| 2026-05-06 13:34 | 14.50350 | 121.00745 | 82 ft | 23 kts | 240° |
| 2026-05-06 13:34 | 14.50271 | 121.00601 | 82 ft | 22 kts | 240° |
| 2026-05-06 13:35 | 14.50193 | 121.00462 | 82 ft | 22 kts | 240° |
| 2026-05-06 13:35 | 14.50117 | 121.00326 | 82 ft | 21 kts | 240° |
| 2026-05-06 13:35 | 14.50045 | 121.00195 | 82 ft | 20 kts | 240° |
| 2026-05-06 13:35 | 14.49976 | 121.00070 | 82 ft | 17 kts | 240° |
| 2026-05-06 13:36 | 14.49935 | 120.99998 | 82 ft | 7 kts | 240° |
| 2026-05-06 13:36 | 14.49905 | 120.99963 | 82 ft | 5 kts | 199° |
| 2026-05-06 13:36 | 14.49863 | 120.99972 | 82 ft | 6 kts | 149° |
| 2026-05-06 13:36 | 14.49819 | 120.99999 | 82 ft | 7 kts | 141° |
| 2026-05-06 13:37 | 14.49807 | 121.00051 | 82 ft | 8 kts | 73° |
| 2026-05-06 13:37 | 14.49838 | 121.00109 | 82 ft | 13 kts | 60° |
| 2026-05-06 13:37 | 14.49991 | 121.00385 | 82 ft | 81 kts | 60° |
| 2026-05-06 13:37 | 14.50386 | 121.01097 | 82 ft | 146 kts | 60° |
| 2026-05-06 13:38 | 14.50964 | 121.02119 | 374 ft | 172 kts | 61° |
| 2026-05-06 13:38 | 14.51553 | 121.03186 | 1062 ft | 172 kts | 61° |
| 2026-05-06 13:38 | 14.52123 | 121.04232 | 1780 ft | 167 kts | 60° |
| 2026-05-06 13:38 | 14.52701 | 121.05283 | 2131 ft | 172 kts | 60° |
| 2026-05-06 13:39 | 14.53311 | 121.06385 | 2369 ft | 184 kts | 60° |
| 2026-05-06 13:39 | 14.53715 | 121.07691 | 2593 ft | 200 kts | 91° |
| 2026-05-06 13:39 | 14.53141 | 121.09029 | 2835 ft | 218 kts | 127° |
| 2026-05-06 13:39 | 14.52060 | 121.10207 | 3070 ft | 236 kts | 131° |
| 2026-05-06 13:40 | 14.50874 | 121.11488 | 3344 ft | 255 kts | 131° |
| 2026-05-06 13:40 | 14.49619 | 121.12850 | 3687 ft | 271 kts | 131° |
| 2026-05-06 13:40 | 14.48306 | 121.14275 | 4267 ft | 277 kts | 131° |
| 2026-05-06 13:40 | 14.46984 | 121.15708 | 5009 ft | 278 kts | 131° |
| 2026-05-06 13:41 | 14.45643 | 121.17165 | 5739 ft | 280 kts | 131° |
| 2026-05-06 13:41 | 14.44296 | 121.18631 | 6451 ft | 284 kts | 131° |
| 2026-05-06 13:41 | 14.42942 | 121.20105 | 7172 ft | 286 kts | 131° |
| 2026-05-06 13:41 | 14.41583 | 121.21582 | 7944 ft | 288 kts | 130° |
| 2026-05-06 13:42 | 14.40658 | 121.22587 | 8455 ft | 289 kts | 130° |
| 2026-05-06 13:42 | 14.39286 | 121.24082 | 9159 ft | 291 kts | 130° |
| 2026-05-06 13:42 | 14.37880 | 121.25615 | 9848 ft | 293 kts | 130° |
| 2026-05-06 13:42 | 14.37416 | 121.26122 | 10065 ft | 294 kts | 130° |
| 2026-05-06 13:43 | 14.34584 | 121.29211 | 11297 ft | 300 kts | 130° |
| 2026-05-06 13:43 | 14.33134 | 121.30794 | 11660 ft | 312 kts | 131° |
| 2026-05-06 13:43 | 14.32117 | 121.31903 | 11833 ft | 322 kts | 131° |
| 2026-05-06 13:43 | 14.29982 | 121.34229 | 12171 ft | 342 kts | 131° |
| 2026-05-06 13:44 | 14.28891 | 121.35415 | 12329 ft | 351 kts | 131° |
| 2026-05-06 13:44 | 14.26589 | 121.37918 | 12637 ft | 369 kts | 131° |
| 2026-05-06 13:44 | 14.24790 | 121.39873 | 12854 ft | 382 kts | 131° |
| 2026-05-06 13:44 | 14.22922 | 121.41901 | 13063 ft | 394 kts | 131° |
| 2026-05-06 13:45 | 14.21007 | 121.43981 | 13286 ft | 405 kts | 131° |
| 2026-05-06 13:45 | 14.17102 | 121.48221 | 14138 ft | 412 kts | 131° |
| 2026-05-06 13:45 | 14.15106 | 121.50388 | 14596 ft | 414 kts | 131° |
| 2026-05-06 13:46 | 14.13788 | 121.51818 | 14888 ft | 416 kts | 131° |
| 2026-05-06 13:46 | 14.11801 | 121.53976 | 15311 ft | 418 kts | 132° |
| 2026-05-06 13:46 | 14.09798 | 121.56151 | 15709 ft | 421 kts | 132° |
| 2026-05-06 13:46 | 14.07096 | 121.59084 | 16220 ft | 425 kts | 132° |
| 2026-05-06 13:47 | 14.05039 | 121.61316 | 16621 ft | 427 kts | 132° |
| 2026-05-06 13:47 | 14.02998 | 121.63531 | 17001 ft | 429 kts | 132° |
| 2026-05-06 13:47 | 14.00950 | 121.65755 | 17367 ft | 431 kts | 132° |
| 2026-05-06 13:47 | 13.98872 | 121.68008 | 17724 ft | 433 kts | 132° |
| 2026-05-06 13:48 | 13.96795 | 121.70264 | 18064 ft | 436 kts | 132° |
| 2026-05-06 13:48 | 13.94700 | 121.72538 | 18396 ft | 438 kts | 133° |
| 2026-05-06 13:48 | 13.92588 | 121.74826 | 18734 ft | 440 kts | 133° |
| 2026-05-06 13:48 | 13.90476 | 121.77114 | 19064 ft | 442 kts | 133° |
| 2026-05-06 13:49 | 13.88299 | 121.79385 | 19377 ft | 445 kts | 135° |
| 2026-05-06 13:49 | 13.86021 | 121.81517 | 19684 ft | 448 kts | 138° |
| 2026-05-06 13:49 | 13.83570 | 121.83566 | 19994 ft | 450 kts | 141° |
| 2026-05-06 13:49 | 13.81050 | 121.85490 | 20305 ft | 452 kts | 142° |
| 2026-05-06 13:50 | 13.78532 | 121.87386 | 20594 ft | 454 kts | 142° |
| 2026-05-06 13:50 | 13.75951 | 121.89328 | 20880 ft | 456 kts | 143° |
| 2026-05-06 13:50 | 13.73380 | 121.91263 | 21145 ft | 458 kts | 143° |
| 2026-05-06 13:50 | 13.70810 | 121.93198 | 21416 ft | 460 kts | 143° |
| 2026-05-06 13:51 | 13.68225 | 121.95144 | 21680 ft | 462 kts | 142° |
| 2026-05-06 13:51 | 13.65603 | 121.97120 | 21947 ft | 464 kts | 143° |
| 2026-05-06 13:51 | 13.63013 | 121.99071 | 22204 ft | 466 kts | 143° |
| 2026-05-06 13:51 | 13.60376 | 122.01057 | 22465 ft | 467 kts | 143° |
| 2026-05-06 13:52 | 13.57731 | 122.03050 | 22717 ft | 469 kts | 143° |
| 2026-05-06 13:52 | 13.55123 | 122.05013 | 22964 ft | 471 kts | 143° |
| 2026-05-06 13:52 | 13.52476 | 122.07006 | 23199 ft | 473 kts | 143° |
| 2026-05-06 13:52 | 13.49805 | 122.09016 | 23430 ft | 474 kts | 143° |
| 2026-05-06 13:53 | 13.47128 | 122.11029 | 23662 ft | 476 kts | 143° |
| 2026-05-06 13:53 | 13.44464 | 122.13033 | 23889 ft | 478 kts | 143° |
| 2026-05-06 13:53 | 13.41758 | 122.15068 | 24114 ft | 479 kts | 143° |
| 2026-05-06 13:53 | 13.39060 | 122.17095 | 24336 ft | 481 kts | 143° |
| 2026-05-06 13:54 | 13.36367 | 122.19119 | 24569 ft | 482 kts | 143° |
| 2026-05-06 13:54 | 13.33677 | 122.21139 | 24873 ft | 481 kts | 143° |
| 2026-05-06 13:54 | 13.30951 | 122.23188 | 25196 ft | 480 kts | 143° |
| 2026-05-06 13:54 | 13.29164 | 122.24530 | 25399 ft | 480 kts | 143° |
| 2026-05-06 13:55 | 13.23294 | 122.28935 | 26069 ft | 479 kts | 143° |
| 2026-05-06 13:55 | 13.20617 | 122.30943 | 26368 ft | 478 kts | 143° |
| 2026-05-06 13:55 | 13.17905 | 122.32976 | 26682 ft | 478 kts | 143° |
| 2026-05-06 13:56 | 13.15228 | 122.34985 | 27002 ft | 477 kts | 143° |
| 2026-05-06 13:56 | 13.12542 | 122.37001 | 27329 ft | 477 kts | 143° |
| 2026-05-06 13:56 | 13.09893 | 122.38988 | 27652 ft | 476 kts | 143° |
| 2026-05-06 13:56 | 13.07200 | 122.41007 | 27995 ft | 475 kts | 144° |
| 2026-05-06 13:57 | 13.04558 | 122.42986 | 28337 ft | 474 kts | 144° |
| 2026-05-06 13:57 | 13.01894 | 122.44981 | 28667 ft | 473 kts | 144° |
| 2026-05-06 13:57 | 12.99233 | 122.46973 | 28990 ft | 472 kts | 144° |
| 2026-05-06 13:57 | 12.96583 | 122.48956 | 29322 ft | 471 kts | 144° |
| 2026-05-06 13:58 | 12.93925 | 122.50944 | 29657 ft | 470 kts | 144° |
| 2026-05-06 13:58 | 12.91279 | 122.52925 | 29976 ft | 470 kts | 144° |
| 2026-05-06 13:58 | 12.88637 | 122.54900 | 30288 ft | 469 kts | 144° |
| 2026-05-06 13:58 | 12.85974 | 122.56892 | 30597 ft | 469 kts | 144° |
| 2026-05-06 13:59 | 12.83364 | 122.58843 | 30901 ft | 468 kts | 144° |
| 2026-05-06 13:59 | 12.80734 | 122.60808 | 31235 ft | 467 kts | 144° |
| 2026-05-06 13:59 | 12.78093 | 122.62769 | 31602 ft | 465 kts | 144° |
| 2026-05-06 13:59 | 12.75473 | 122.64706 | 31995 ft | 462 kts | 144° |
| 2026-05-06 14:00 | 12.72896 | 122.66637 | 32322 ft | 461 kts | 144° |
| 2026-05-06 14:00 | 12.70305 | 122.68592 | 32607 ft | 461 kts | 144° |
| 2026-05-06 14:00 | 12.67711 | 122.70545 | 32934 ft | 460 kts | 144° |
| 2026-05-06 14:00 | 12.65151 | 122.72465 | 33286 ft | 459 kts | 144° |
| 2026-05-06 14:01 | 12.62575 | 122.74393 | 33655 ft | 458 kts | 144° |
| 2026-05-06 14:01 | 12.59990 | 122.76323 | 34035 ft | 456 kts | 144° |
| 2026-05-06 14:01 | 12.57415 | 122.78245 | 34416 ft | 455 kts | 145° |
| 2026-05-06 14:01 | 12.54874 | 122.80139 | 34786 ft | 453 kts | 145° |
| 2026-05-06 14:02 | 12.52340 | 122.82027 | 35132 ft | 452 kts | 145° |
| 2026-05-06 14:02 | 12.49780 | 122.83934 | 35418 ft | 451 kts | 145° |
| 2026-05-06 14:02 | 12.47234 | 122.85829 | 35638 ft | 452 kts | 145° |
| 2026-05-06 14:02 | 12.44693 | 122.87722 | 35831 ft | 453 kts | 145° |
| 2026-05-06 14:03 | 12.42153 | 122.89613 | 36027 ft | 454 kts | 145° |
| 2026-05-06 14:03 | 12.39588 | 122.91522 | 36219 ft | 455 kts | 144° |
| 2026-05-06 14:03 | 12.37007 | 122.93443 | 36399 ft | 455 kts | 144° |
| 2026-05-06 14:03 | 12.35310 | 122.94705 | 36519 ft | 456 kts | 144° |
| 2026-05-06 14:04 | 12.31878 | 122.97259 | 36741 ft | 456 kts | 144° |
| 2026-05-06 14:04 | 12.29336 | 122.99146 | 36876 ft | 457 kts | 144° |
| 2026-05-06 14:04 | 12.24156 | 123.02991 | 36882 ft | 458 kts | 144° |
| 2026-05-06 14:05 | 12.18979 | 123.06834 | 36884 ft | 458 kts | 144° |
| 2026-05-06 14:05 | 12.13785 | 123.10689 | 36885 ft | 463 kts | 144° |
| 2026-05-06 14:06 | 12.08552 | 123.14571 | 36887 ft | 468 kts | 144° |
| 2026-05-06 14:06 | 12.07668 | 123.15226 | 36886 ft | 468 kts | 144° |
| 2026-05-06 14:07 | 11.98031 | 123.22371 | 36886 ft | 469 kts | 144° |
| 2026-05-06 14:07 | 11.92760 | 123.26278 | 36885 ft | 469 kts | 144° |
| 2026-05-06 14:08 | 11.87492 | 123.30181 | 36883 ft | 469 kts | 144° |
| 2026-05-06 14:08 | 11.84777 | 123.31988 | 36760 ft | 461 kts | 152° |
| 2026-05-06 14:08 | 11.81856 | 123.33290 | 36469 ft | 455 kts | 161° |
| 2026-05-06 14:09 | 11.78800 | 123.34175 | 36185 ft | 451 kts | 166° |
| 2026-05-06 14:09 | 11.75785 | 123.34946 | 35897 ft | 448 kts | 166° |
| 2026-05-06 14:09 | 11.72740 | 123.35712 | 35608 ft | 446 kts | 166° |
| 2026-05-06 14:09 | 11.69750 | 123.36468 | 35327 ft | 446 kts | 166° |
| 2026-05-06 14:10 | 11.63806 | 123.37991 | 34762 ft | 447 kts | 166° |
| 2026-05-06 14:10 | 11.60778 | 123.38772 | 34477 ft | 448 kts | 166° |
| 2026-05-06 14:10 | 11.57740 | 123.39558 | 34191 ft | 450 kts | 166° |
| 2026-05-06 14:11 | 11.54702 | 123.40345 | 33777 ft | 452 kts | 166° |
| 2026-05-06 14:11 | 11.51652 | 123.41136 | 33056 ft | 454 kts | 166° |
| 2026-05-06 14:11 | 11.48585 | 123.41933 | 32203 ft | 457 kts | 166° |
| 2026-05-06 14:11 | 11.45452 | 123.42745 | 31272 ft | 462 kts | 166° |
| 2026-05-06 14:12 | 11.42329 | 123.43555 | 30285 ft | 467 kts | 165° |
| 2026-05-06 14:12 | 11.39169 | 123.44374 | 29250 ft | 474 kts | 165° |
| 2026-05-06 14:12 | 11.35966 | 123.45205 | 28189 ft | 480 kts | 165° |
| 2026-05-06 14:12 | 11.32705 | 123.46050 | 27092 ft | 487 kts | 165° |
| 2026-05-06 14:13 | 11.29388 | 123.46909 | 25945 ft | 493 kts | 165° |
| 2026-05-06 14:13 | 11.26106 | 123.47759 | 25079 ft | 491 kts | 164° |
| 2026-05-06 14:13 | 11.22791 | 123.48617 | 24216 ft | 490 kts | 164° |
| 2026-05-06 14:13 | 11.19471 | 123.49476 | 23336 ft | 488 kts | 164° |
| 2026-05-06 14:14 | 11.16186 | 123.50325 | 22458 ft | 486 kts | 164° |
| 2026-05-06 14:14 | 11.12913 | 123.51172 | 21611 ft | 484 kts | 163° |
| 2026-05-06 14:14 | 11.09673 | 123.52010 | 20929 ft | 470 kts | 163° |
| 2026-05-06 14:14 | 11.06591 | 123.52807 | 19950 ft | 454 kts | 163° |
| 2026-05-06 14:15 | 11.03573 | 123.53587 | 18891 ft | 440 kts | 163° |
| 2026-05-06 14:15 | 11.00646 | 123.54343 | 17832 ft | 427 kts | 163° |
| 2026-05-06 14:15 | 10.97796 | 123.55082 | 17069 ft | 429 kts | 163° |
| 2026-05-06 14:15 | 10.94861 | 123.55843 | 16692 ft | 433 kts | 163° |
| 2026-05-06 14:16 | 10.91946 | 123.56597 | 16205 ft | 431 kts | 163° |
| 2026-05-06 14:16 | 10.89039 | 123.57347 | 15644 ft | 427 kts | 163° |
| 2026-05-06 14:16 | 10.86180 | 123.58085 | 15040 ft | 424 kts | 163° |
| 2026-05-06 14:16 | 10.83336 | 123.58819 | 14420 ft | 421 kts | 163° |
| 2026-05-06 14:17 | 10.80466 | 123.59560 | 13774 ft | 419 kts | 163° |
| 2026-05-06 14:17 | 10.77654 | 123.60285 | 13141 ft | 417 kts | 163° |
| 2026-05-06 14:17 | 10.74867 | 123.61005 | 12505 ft | 415 kts | 163° |
| 2026-05-06 14:17 | 10.72062 | 123.61729 | 12008 ft | 407 kts | 163° |
| 2026-05-06 14:18 | 10.69336 | 123.62431 | 11615 ft | 398 kts | 163° |
| 2026-05-06 14:18 | 10.66705 | 123.63109 | 11270 ft | 388 kts | 163° |
| 2026-05-06 14:18 | 10.64124 | 123.63775 | 11043 ft | 375 kts | 163° |
| 2026-05-06 14:18 | 10.61620 | 123.64420 | 10800 ft | 364 kts | 163° |
| 2026-05-06 14:19 | 10.59177 | 123.65050 | 10527 ft | 355 kts | 163° |
| 2026-05-06 14:19 | 10.56788 | 123.65666 | 10340 ft | 344 kts | 163° |
| 2026-05-06 14:19 | 10.54500 | 123.66255 | 10203 ft | 328 kts | 163° |
| 2026-05-06 14:19 | 10.52370 | 123.66801 | 10064 ft | 305 kts | 163° |
| 2026-05-06 14:20 | 10.50345 | 123.67322 | 9762 ft | 300 kts | 162° |
| 2026-05-06 14:20 | 10.48321 | 123.67847 | 9373 ft | 300 kts | 162° |
| 2026-05-06 14:20 | 10.46291 | 123.68372 | 8996 ft | 300 kts | 162° |
| 2026-05-06 14:20 | 10.44273 | 123.68895 | 8627 ft | 300 kts | 162° |
| 2026-05-06 14:21 | 10.42231 | 123.69423 | 8251 ft | 299 kts | 162° |
| 2026-05-06 14:21 | 10.40201 | 123.69947 | 7869 ft | 299 kts | 162° |
| 2026-05-06 14:21 | 10.38199 | 123.70464 | 7494 ft | 299 kts | 162° |
| 2026-05-06 14:21 | 10.36153 | 123.70990 | 7103 ft | 297 kts | 163° |
| 2026-05-06 14:22 | 10.34191 | 123.71493 | 6739 ft | 286 kts | 162° |
| 2026-05-06 14:22 | 10.32301 | 123.71978 | 6396 ft | 279 kts | 162° |
| 2026-05-06 14:22 | 10.30409 | 123.72466 | 6060 ft | 279 kts | 162° |
| 2026-05-06 14:22 | 10.28522 | 123.72954 | 5717 ft | 280 kts | 162° |
| 2026-05-06 14:23 | 10.26625 | 123.73444 | 5362 ft | 280 kts | 162° |
| 2026-05-06 14:23 | 10.24767 | 123.73920 | 5013 ft | 269 kts | 162° |
| 2026-05-06 14:23 | 10.23028 | 123.74509 | 4678 ft | 255 kts | 149° |
| 2026-05-06 14:24 | 10.20492 | 123.76605 | 4073 ft | 232 kts | 131° |
| 2026-05-06 14:24 | 10.19377 | 123.77760 | 3776 ft | 224 kts | 131° |
| 2026-05-06 14:24 | 10.18321 | 123.78853 | 3571 ft | 210 kts | 130° |
| 2026-05-06 14:24 | 10.17337 | 123.79861 | 3484 ft | 193 kts | 130° |
| 2026-05-06 14:25 | 10.16433 | 123.80869 | 3409 ft | 188 kts | 118° |
| 2026-05-06 14:25 | 10.16069 | 123.82090 | 3319 ft | 182 kts | 89° |
| 2026-05-06 14:25 | 10.16347 | 123.83330 | 3242 ft | 179 kts | 62° |
| 2026-05-06 14:25 | 10.17125 | 123.84312 | 3180 ft | 179 kts | 45° |
| 2026-05-06 14:26 | 10.18015 | 123.85197 | 3029 ft | 179 kts | 45° |
| 2026-05-06 14:26 | 10.18906 | 123.86075 | 2834 ft | 178 kts | 45° |
| 2026-05-06 14:26 | 10.19794 | 123.86955 | 2643 ft | 178 kts | 45° |
| 2026-05-06 14:26 | 10.20676 | 123.87833 | 2479 ft | 172 kts | 45° |
| 2026-05-06 14:27 | 10.21509 | 123.88665 | 2269 ft | 164 kts | 45° |
| 2026-05-06 14:27 | 10.22295 | 123.89451 | 2058 ft | 150 kts | 45° |
| 2026-05-06 14:27 | 10.23025 | 123.90183 | 1892 ft | 145 kts | 45° |
| 2026-05-06 14:27 | 10.23731 | 123.90891 | 1698 ft | 143 kts | 45° |
| 2026-05-06 14:28 | 10.24443 | 123.91606 | 1508 ft | 143 kts | 45° |
| 2026-05-06 14:28 | 10.25156 | 123.92323 | 1315 ft | 142 kts | 45° |
| 2026-05-06 14:28 | 10.25858 | 123.93028 | 1124 ft | 142 kts | 45° |
| 2026-05-06 14:28 | 10.26556 | 123.93728 | 929 ft | 142 kts | 45° |
| 2026-05-06 14:29 | 10.27256 | 123.94429 | 713 ft | 141 kts | 45° |
| 2026-05-06 14:29 | 10.27961 | 123.95133 | 520 ft | 140 kts | 45° |
| 2026-05-06 14:29 | 10.28658 | 123.95835 | 341 ft | 140 kts | 45° |
| 2026-05-06 14:29 | 10.29350 | 123.96533 | 168 ft | 140 kts | 45° |
| 2026-05-06 14:30 | 10.30047 | 123.97227 | 39 ft | 136 kts | 44° |
| 2026-05-06 14:30 | 10.30645 | 123.97831 | 36 ft | 100 kts | 45° |
| 2026-05-06 14:30 | 10.30978 | 123.98163 | 36 ft | 36 kts | 47° |
| 2026-05-06 14:30 | 10.31078 | 123.98264 | 36 ft | 17 kts | 37° |
| 2026-05-06 14:31 | 10.31189 | 123.98313 | 36 ft | 17 kts | 18° |
| 2026-05-06 14:31 | 10.31303 | 123.98348 | 36 ft | 13 kts | 15° |
| 2026-05-06 14:31 | 10.31367 | 123.98341 | 36 ft | 9 kts | 331° |
| 2026-05-06 14:31 | 10.31420 | 123.98295 | 36 ft | 10 kts | 316° |
| 2026-05-06 14:32 | 10.31476 | 123.98239 | 36 ft | 11 kts | 314° |
| 2026-05-06 14:32 | 10.31532 | 123.98180 | 36 ft | 9 kts | 314° |
| 2026-05-06 14:32 | 10.31574 | 123.98132 | 36 ft | 9 kts | 305° |
| 2026-05-06 14:32 | 10.31612 | 123.98090 | 36 ft | 4 kts | 316° |
| 2026-05-06 14:33 | 10.31632 | 123.98070 | 36 ft | 2 kts | 316° |
| 2026-05-06 14:33 | 10.31633 | 123.98069 | 36 ft | 0 kts | 316° |